Time;durP1;ratioP1;P1;durP2;ratioP2;P2;SDS_P1;SDS_P2;PMS_P1;PMS_P2;Temp;Humidity;BMP_temperature;BMP_pressure;BME280_temperature;BME280_humidity;BME280_pressure;Samples;Min_cycle;Max_cycle;Signal;HPM_P1;HPM_P2
2022/08/02 00:02:18;;;;;;;4.33;3.00;;;22.40;90.90;;;;;;5031441;28;20488;-85
2022/08/02 00:04:46;;;;;;;4.00;3.23;;;22.40;91.20;;;;;;5035547;28;20447;-84
2022/08/02 00:07:14;;;;;;;2.63;2.43;;;22.40;91.70;;;;;;5030660;28;20457;-85
2022/08/02 00:09:41;;;;;;;3.17;2.77;;;22.40;91.30;;;;;;5034506;28;20443;-85
2022/08/02 00:12:09;;;;;;;3.70;2.80;;;22.70;91.00;;;;;;5010842;28;20546;-85
2022/08/02 00:14:36;;;;;;;4.23;2.90;;;22.50;90.90;;;;;;5012013;28;20481;-85
2022/08/02 00:17:05;;;;;;;4.50;3.37;;;22.30;91.30;;;;;;5020806;28;20454;-85
2022/08/02 00:19:31;;;;;;;4.30;3.37;;;22.20;91.60;;;;;;5033527;28;20425;-86
2022/08/02 00:21:58;;;;;;;5.83;3.70;;;22.10;91.80;;;;;;5035238;28;20513;-85
2022/08/02 00:24:26;;;;;;;3.50;3.20;;;22.10;92.00;;;;;;5016959;28;20448;-84
2022/08/02 00:26:56;;;;;;;5.50;4.43;;;22.00;92.30;;;;;;5043709;28;20455;-85
2022/08/02 00:29:24;;;;;;;4.83;4.30;;;22.00;92.50;;;;;;5039714;28;20462;-84
2022/08/02 00:31:52;;;;;;;3.90;3.60;;;22.00;92.60;;;;;;5034788;28;20468;-85
2022/08/02 00:34:19;;;;;;;3.40;3.10;;;21.90;92.70;;;;;;5018412;28;20477;-85
2022/08/02 00:36:55;;;;;;;3.80;3.50;;;21.90;92.90;;;;;;5028087;28;20884;-84
2022/08/02 00:39:22;;;;;;;3.00;2.80;;;21.90;92.90;;;;;;5018852;28;20453;-84
2022/08/02 00:42:01;;;;;;;3.80;3.30;;;21.90;92.90;;;;;;5024080;28;20485;-84
2022/08/02 00:44:27;;;;;;;3.37;3.03;;;21.90;92.80;;;;;;5015647;28;20454;-83
2022/08/02 00:46:54;;;;;;;2.90;2.70;;;21.90;92.90;;;;;;5029496;28;20925;-82
2022/08/02 00:49:21;;;;;;;2.80;2.60;;;21.90;92.90;;;;;;5017651;28;20932;-84
2022/08/02 00:51:47;;;;;;;3.80;2.63;;;22.00;92.90;;;;;;5028019;28;20470;-84
2022/08/02 00:54:14;;;;;;;3.50;3.20;;;21.90;93.00;;;;;;5038008;28;20472;-85
2022/08/02 00:56:41;;;;;;;8.83;3.73;;;21.90;93.10;;;;;;5025207;28;20442;-85
2022/08/02 00:59:15;;;;;;;3.73;3.27;;;21.80;93.10;;;;;;5035065;28;20513;-85
2022/08/02 01:01:42;;;;;;;10.60;3.30;;;21.80;93.20;;;;;;5036238;28;20484;-84
2022/08/02 01:04:23;;;;;;;3.60;3.30;;;21.80;93.30;;;;;;5024353;28;21121;-84
2022/08/02 01:06:52;;;;;;;5.73;3.20;;;21.80;93.30;;;;;;5039334;28;20476;-82
2022/08/02 01:09:19;;;;;;;3.73;3.10;;;21.70;93.40;;;;;;5016571;28;20468;-83
2022/08/02 01:11:45;;;;;;;4.37;3.50;;;21.60;93.70;;;;;;5032767;28;20478;-85
2022/08/02 01:14:13;;;;;;;3.77;3.10;;;21.60;93.80;;;;;;5032258;28;20451;-86
2022/08/02 01:17:04;;;;;;;5.83;3.13;;;21.60;93.80;;;;;;5025858;28;20452;-84
2022/08/02 01:19:53;;;;;;;4.90;3.47;;;21.60;94.00;;;;;;5016760;28;20442;-84
2022/08/02 01:22:51;;;;;;;4.57;2.90;;;21.60;93.90;;;;;;5022723;28;20532;-86
2022/08/02 01:25:36;;;;;;;7.13;3.37;;;21.70;93.70;;;;;;5025982;28;20465;-84
2022/08/02 01:28:33;;;;;;;4.10;3.30;;;21.70;93.50;;;;;;5024996;28;20433;-84
2022/08/02 01:31:11;;;;;;;5.13;3.37;;;21.80;93.50;;;;;;5042607;28;20532;-85
2022/08/02 01:33:47;;;;;;;3.80;2.87;;;21.80;93.60;;;;;;5009108;28;20440;-85
2022/08/02 01:36:17;;;;;;;3.93;3.50;;;21.90;93.50;;;;;;5037110;28;20468;-85
2022/08/02 01:38:48;;;;;;;6.10;3.30;;;21.90;93.30;;;;;;5015870;28;20555;-85
2022/08/02 01:41:22;;;;;;;3.43;3.13;;;22.00;93.10;;;;;;5033183;28;20537;-84
2022/08/02 01:43:54;;;;;;;3.80;3.50;;;22.00;93.00;;;;;;5045358;28;20539;-85
2022/08/02 01:46:23;;;;;;;5.60;3.70;;;21.80;93.10;;;;;;5059974;28;20430;-84
2022/08/02 01:48:59;;;;;;;3.83;3.23;;;21.60;93.50;;;;;;5045394;28;20477;-85
2022/08/02 01:54:30;;;;;;;3.90;3.40;;;21.80;93.80;;;;;;5051100;28;20445;-83
2022/08/02 01:57:02;;;;;;;7.40;3.27;;;21.80;93.40;;;;;;5010947;28;20446;-84
2022/08/02 01:59:41;;;;;;;8.63;3.70;;;21.70;93.70;;;;;;5008715;28;20434;-83
2022/08/02 02:02:18;;;;;;;5.93;4.17;;;21.60;93.90;;;;;;5019429;28;20569;-84
2022/08/02 02:04:49;;;;;;;5.40;4.03;;;21.40;94.30;;;;;;5011356;28;20450;-83
2022/08/02 02:07:19;;;;;;;7.90;3.93;;;21.20;94.60;;;;;;5008849;28;20441;-83
2022/08/02 02:10:02;;;;;;;4.33;3.93;;;21.00;95.10;;;;;;5035934;28;20465;-83
2022/08/02 02:12:38;;;;;;;5.30;4.50;;;20.80;95.60;;;;;;5007489;28;20476;-83
2022/08/02 02:15:10;;;;;;;6.83;4.40;;;20.80;95.90;;;;;;5024592;28;20462;-83
2022/08/02 02:17:44;;;;;;;11.30;4.90;;;20.80;96.00;;;;;;5004590;28;20454;-85
2022/08/02 02:20:20;;;;;;;6.20;5.60;;;20.90;95.90;;;;;;5007236;28;20531;-83
2022/08/02 02:23:00;;;;;;;9.70;5.37;;;21.10;95.20;;;;;;5015172;28;20490;-84
2022/08/02 02:25:37;;;;;;;6.13;4.73;;;21.20;94.80;;;;;;5018809;28;20476;-84
2022/08/02 02:28:21;;;;;;;6.90;4.60;;;21.10;94.90;;;;;;5028292;28;20960;-83
2022/08/02 02:30:52;;;;;;;8.77;5.17;;;21.00;95.00;;;;;;5019825;28;21105;-84
2022/08/02 02:33:22;;;;;;;6.07;4.00;;;21.00;95.10;;;;;;5007440;28;20462;-83
2022/08/02 02:35:56;;;;;;;6.83;4.53;;;20.90;95.30;;;;;;5006737;28;20533;-85
2022/08/02 02:38:26;;;;;;;6.07;3.90;;;21.10;95.40;;;;;;5021281;28;20538;-84
2022/08/02 02:41:00;;;;;;;6.53;4.00;;;21.00;95.10;;;;;;5022422;28;20454;-85
2022/08/02 02:43:31;;;;;;;6.27;4.53;;;21.00;95.10;;;;;;5035670;28;20459;-84
2022/08/02 02:45:59;;;;;;;5.10;4.27;;;20.90;95.30;;;;;;5021816;28;20447;-82
2022/08/02 02:48:28;;;;;;;5.27;4.57;;;20.80;95.50;;;;;;5028564;28;20450;-84
2022/08/02 02:50:56;;;;;;;8.00;4.50;;;20.80;95.70;;;;;;5032926;28;20446;-87
2022/08/02 02:53:27;;;;;;;6.23;4.67;;;20.70;95.80;;;;;;5027811;28;20493;-85
2022/08/02 02:55:54;;;;;;;7.20;4.70;;;20.90;95.70;;;;;;5042847;28;20446;-85
2022/08/02 02:58:27;;;;;;;5.47;4.10;;;20.90;95.50;;;;;;5019735;28;20967;-85
2022/08/02 03:03:44;;;;;;;6.30;4.70;;;20.90;96.00;;;;;;5030333;28;20612;-85
2022/08/02 03:06:12;;;;;;;4.43;4.00;;;20.70;96.80;;;;;;5028659;28;20446;-85
2022/08/02 03:08:41;;;;;;;6.37;4.00;;;20.70;97.00;;;;;;5022169;28;20458;-84
2022/08/02 03:11:10;;;;;;;4.97;4.47;;;20.70;97.00;;;;;;5032437;28;20470;-85
2022/08/02 03:13:38;;;;;;;5.00;4.50;;;20.60;97.40;;;;;;5012257;28;20462;-84
2022/08/02 03:16:07;;;;;;;5.93;5.33;;;20.60;98.50;;;;;;5018471;28;20956;-85
2022/08/02 03:18:35;;;;;;;6.17;4.70;;;20.40;98.80;;;;;;5031458;28;20951;-85
2022/08/02 03:21:06;;;;;;;6.20;5.60;;;20.20;99.20;;;;;;5023576;28;20488;-84
2022/08/02 03:24:02;;;;;;;6.30;5.07;;;20.10;99.50;;;;;;5016215;28;20493;-85
2022/08/02 03:26:35;;;;;;;6.03;5.07;;;20.00;99.90;;;;;;5010493;28;21223;-81
2022/08/02 03:29:11;;;;;;;7.40;5.00;;;19.90;99.90;;;;;;5024435;28;20456;-84
2022/08/02 03:31:42;;;;;;;5.20;4.70;;;19.70;99.90;;;;;;5029514;28;20659;-84
2022/08/02 03:34:35;;;;;;;6.23;5.07;;;19.50;99.90;;;;;;5006745;28;20501;-84
2022/08/02 03:37:04;;;;;;;5.17;4.27;;;19.50;99.90;;;;;;5016026;28;20483;-84
2022/08/02 03:39:32;;;;;;;6.77;5.37;;;19.60;99.90;;;;;;5036910;28;20524;-84
2022/08/02 03:42:01;;;;;;;5.90;4.60;;;19.70;99.90;;;;;;5041776;28;20496;-84
2022/08/02 03:44:29;;;;;;;6.03;4.50;;;19.60;99.90;;;;;;5049924;28;20435;-84
2022/08/02 03:46:57;;;;;;;4.83;4.43;;;19.50;99.90;;;;;;5037497;28;20457;-85
2022/08/02 03:49:30;;;;;;;5.23;4.17;;;19.50;99.90;;;;;;5025154;28;20478;-84
2022/08/02 03:51:58;;;;;;;5.27;4.77;;;19.60;99.90;;;;;;5023362;28;20447;-86
2022/08/02 03:54:27;;;;;;;5.40;4.90;;;19.60;99.90;;;;;;5020991;28;20469;-84
2022/08/02 03:56:58;;;;;;;5.73;4.80;;;19.60;99.90;;;;;;5041914;28;20480;-84
2022/08/02 03:59:26;;;;;;;6.00;5.47;;;19.60;99.90;;;;;;5051090;28;20452;-85
2022/08/02 04:02:00;;;;;;;6.40;5.80;;;19.60;99.90;;;;;;5023833;28;20466;-86
2022/08/02 04:04:29;;;;;;;5.40;4.90;;;19.50;99.90;;;;;;5016811;28;21205;-83
2022/08/02 04:07:16;;;;;;;6.23;5.73;;;19.20;99.90;;;;;;5005956;28;20490;-84
2022/08/02 04:10:12;;;;;;;7.93;5.00;;;19.30;99.90;;;;;;5020131;28;20469;-84
2022/08/02 04:12:39;;;;;;;6.03;5.43;;;19.30;99.90;;;;;;5020367;28;20474;-83
2022/08/02 04:15:22;;;;;;;5.83;5.20;;;19.20;99.90;;;;;;4999697;28;20463;-83
2022/08/02 04:18:06;;;;;;;5.80;5.30;;;19.20;99.90;;;;;;5023239;28;20454;-84
2022/08/02 04:20:55;;;;;;;8.13;5.90;;;19.10;99.90;;;;;;5008050;28;20582;-83
2022/08/02 04:23:50;;;;;;;7.00;6.23;;;19.30;99.90;;;;;;5029115;28;20525;-84
2022/08/02 04:26:28;;;;;;;7.20;6.50;;;19.30;99.90;;;;;;5009408;28;20525;-81
2022/08/02 04:29:13;;;;;;;9.17;6.90;;;19.50;99.90;;;;;;5039600;28;20472;-84
2022/08/02 04:31:44;;;;;;;8.23;6.80;;;19.40;99.90;;;;;;5034587;28;20461;-83
2022/08/02 04:34:51;;;;;;;8.43;5.93;;;19.30;99.90;;;;;;5038827;28;20448;-83
2022/08/02 04:37:48;;;;;;;7.20;6.40;;;19.40;99.90;;;;;;5029991;28;20442;-84
2022/08/02 04:40:31;;;;;;;7.47;6.83;;;19.50;99.90;;;;;;5025085;28;20470;-85
2022/08/02 04:43:12;;;;;;;7.80;7.00;;;19.30;99.90;;;;;;5019292;28;20506;-84
2022/08/02 04:45:39;;;;;;;8.30;6.23;;;19.20;99.90;;;;;;5029505;28;20448;-84
2022/08/02 04:48:12;;;;;;;9.57;7.30;;;19.10;99.90;;;;;;5044147;28;20449;-84
2022/08/02 04:50:41;;;;;;;8.60;7.43;;;19.30;99.90;;;;;;5026899;28;20443;-84
2022/08/02 04:53:17;;;;;;;11.20;8.50;;;19.30;99.90;;;;;;5026520;28;20460;-84
2022/08/02 04:55:57;;;;;;;10.30;8.30;;;19.20;99.90;;;;;;5029622;28;20476;-84
2022/08/02 04:58:57;;;;;;;9.00;8.07;;;19.00;99.90;;;;;;5023439;28;20517;-84
2022/08/02 05:04:38;;;;;;;9.50;7.73;;;19.00;99.90;;;;;;5029207;28;20457;-84
2022/08/02 05:07:29;;;;;;;8.37;7.53;;;19.00;99.90;;;;;;5040939;28;20437;-82
2022/08/02 05:10:28;;;;;;;9.23;8.43;;;19.10;99.90;;;;;;5020970;28;20433;-85
2022/08/02 05:13:08;;;;;;;9.10;8.30;;;19.40;99.90;;;;;;5037812;28;20449;-85
2022/08/02 05:15:36;;;;;;;8.83;7.47;;;19.40;99.90;;;;;;5043035;28;20434;-83
2022/08/02 05:18:11;;;;;;;8.87;7.30;;;19.10;99.90;;;;;;5017654;28;20461;-84
2022/08/02 05:20:48;;;;;;;8.43;7.63;;;19.00;99.90;;;;;;5037619;28;20448;-86
2022/08/02 05:23:45;;;;;;;9.90;8.50;;;19.10;99.90;;;;;;5014829;28;20481;-82
2022/08/02 05:26:42;;;;;;;10.70;7.33;;;19.10;99.90;;;;;;5020390;28;20454;-83
2022/08/02 05:29:33;;;;;;;8.13;7.33;;;19.30;99.90;;;;;;5084487;22;20496;-85
2022/08/02 05:32:09;;;;;;;8.47;7.77;;;19.40;99.90;;;;;;5063325;28;20491;-83
2022/08/02 05:34:59;;;;;;;8.20;7.50;;;19.40;99.90;;;;;;5064536;28;20436;-84
2022/08/02 05:37:31;;;;;;;8.63;7.70;;;19.40;99.90;;;;;;5038845;28;20448;-84
2022/08/02 05:40:11;;;;;;;9.10;8.20;;;19.40;99.90;;;;;;5055284;28;20483;-84
2022/08/02 05:42:41;;;;;;;8.67;7.60;;;19.40;99.90;;;;;;5054807;28;20507;-86
2022/08/02 05:45:18;;;;;;;8.47;7.77;;;19.40;99.90;;;;;;5048024;28;20441;-83
2022/08/02 05:48:14;;;;;;;7.73;7.13;;;19.50;99.90;;;;;;5067203;28;20452;-85
2022/08/02 05:50:54;;;;;;;8.03;7.43;;;19.60;99.90;;;;;;5051216;28;21013;-80
2022/08/02 05:53:40;;;;;;;9.33;8.43;;;19.50;99.90;;;;;;5038271;28;20528;-84
2022/08/02 05:56:42;;;;;;;7.10;6.53;;;19.30;99.90;;;;;;5036113;28;20489;-85
2022/08/02 05:59:27;;;;;;;8.37;7.50;;;19.30;99.90;;;;;;5045223;28;20843;-82
2022/08/02 06:02:39;;;;;;;8.87;7.63;;;19.20;99.90;;;;;;5030391;28;20466;-85
2022/08/02 06:05:21;;;;;;;7.80;7.10;;;19.20;99.90;;;;;;5041870;28;20473;-83
2022/08/02 06:07:57;;;;;;;8.43;7.83;;;19.60;99.90;;;;;;5055128;28;20457;-84
2022/08/02 06:10:29;;;;;;;7.37;6.73;;;19.60;99.90;;;;;;5054776;28;20448;-84
2022/08/02 06:13:07;;;;;;;7.83;7.13;;;19.80;99.90;;;;;;5052716;28;20468;-84
2022/08/02 06:15:52;;;;;;;10.23;7.43;;;19.70;99.90;;;;;;5023154;28;20468;-84
2022/08/02 06:18:34;;;;;;;8.23;7.43;;;19.60;99.90;;;;;;5034227;28;20867;-86
2022/08/02 06:21:15;;;;;;;7.97;6.67;;;19.80;99.90;;;;;;5043975;28;20479;-85
2022/08/02 06:24:04;;;;;;;6.87;6.17;;;19.80;99.90;;;;;;5037167;28;20557;-85
2022/08/02 06:26:40;;;;;;;6.93;6.27;;;20.00;99.90;;;;;;5036840;28;20444;-85
2022/08/02 06:29:29;;;;;;;;;;;;;;;;;;;;;
2022/08/02 06:32:35;;;;;;;7.23;6.17;;;20.30;99.90;;;;;;5033918;28;20473;-84
2022/08/02 06:35:41;;;;;;;7.23;6.53;;;20.10;99.90;;;;;;5045615;28;20440;-84
2022/08/02 06:38:34;;;;;;;;;;;;;;;;;;;;;
2022/08/02 06:44:54;;;;;;;7.60;6.77;;;20.70;99.10;;;;;;5113733;22;21030;-83
2022/08/02 06:47:35;;;;;;;7.83;7.23;;;20.80;99.30;;;;;;4954547;28;20450;-84
2022/08/02 06:50:32;;;;;;;8.93;7.70;;;20.90;99.00;;;;;;4948322;28;20448;-83
2022/08/02 06:53:15;;;;;;;8.00;7.40;;;20.80;98.80;;;;;;4989780;28;20516;-84
2022/08/02 06:55:52;;;;;;;7.20;6.50;;;20.80;98.80;;;;;;5004423;28;20613;-84
2022/08/02 06:58:19;;;;;;;8.17;6.80;;;20.90;98.70;;;;;;4984224;28;20833;-85
2022/08/02 07:01:14;;;;;;;10.17;7.13;;;20.90;98.90;;;;;;4996273;28;20442;-85
2022/08/02 07:03:58;;;;;;;8.10;6.40;;;21.10;98.70;;;;;;4955299;28;20484;-85
2022/08/02 07:06:55;;;;;;;6.50;6.00;;;21.20;98.20;;;;;;4959432;28;20564;-86
2022/08/02 07:09:31;;;;;;;6.50;6.00;;;21.30;97.60;;;;;;4923183;29;20460;-84
2022/08/02 07:12:09;;;;;;;9.57;6.73;;;21.50;97.40;;;;;;4949906;28;20461;-85
2022/08/02 07:14:44;;;;;;;7.57;6.83;;;21.50;97.30;;;;;;4960831;28;20612;-84
2022/08/02 07:17:19;;;;;;;6.60;6.03;;;21.60;97.10;;;;;;4975900;28;20451;-84
2022/08/02 07:20:12;;;;;;;8.10;5.83;;;21.60;97.10;;;;;;4979100;28;20466;-84
2022/08/02 07:22:48;;;;;;;6.87;5.83;;;22.00;96.50;;;;;;4960939;28;20477;-84
2022/08/02 07:25:49;;;;;;;7.00;5.63;;;22.10;95.90;;;;;;4971007;28;20459;-83
2022/08/02 07:28:39;;;;;;;6.20;5.60;;;22.10;96.10;;;;;;4969180;28;20427;-84
2022/08/02 07:34:11;;;;;;;6.73;5.90;;;22.40;95.10;;;;;;4999962;28;20453;-84
2022/08/02 07:37:27;;;;;;;5.50;5.00;;;22.50;95.30;;;;;;5023229;28;20861;-86
2022/08/02 07:40:14;;;;;;;6.73;5.93;;;22.70;94.70;;;;;;5031101;28;20479;-86
2022/08/02 07:43:09;;;;;;;;;;;;;;;;;;;;;
2022/08/02 07:45:46;;;;;;;5.20;4.70;;;23.50;93.20;;;;;;5041066;28;20536;-85
2022/08/02 07:48:26;;;;;;;5.47;4.97;;;23.40;93.50;;;;;;5019130;28;20454;-83
2022/08/02 07:51:07;;;;;;;7.27;4.60;;;24.30;91.80;;;;;;5027393;28;20520;-83
2022/08/02 07:53:43;;;;;;;6.47;4.30;;;24.60;90.80;;;;;;5037859;28;20448;-84
2022/08/02 07:56:37;;;;;;;5.60;4.63;;;25.20;89.50;;;;;;5023617;28;20505;-84
2022/08/02 07:59:55;;;;;;;;;;;;;;;;;;;;;
2022/08/02 08:02:58;;;;;;;10.73;5.00;;;25.70;86.40;;;;;;5031484;28;20483;-84
2022/08/02 08:10:32;;;;;;;4.73;3.87;;;26.80;81.40;;;;;;5013173;28;20535;-84
2022/08/02 08:13:02;;;;;;;4.73;3.67;;;27.40;77.40;;;;;;5025158;28;20537;-84
2022/08/02 08:16:56;;;;;;;4.50;3.70;;;27.50;76.10;;;;;;5017545;28;20931;-86
2022/08/02 08:19:42;;;;;;;3.93;3.33;;;29.40;70.30;;;;;;5042334;28;20451;-86
2022/08/02 08:22:49;;;;;;;3.80;3.50;;;31.40;62.50;;;;;;5017507;28;21070;-86
2022/08/02 08:25:15;;;;;;;3.47;3.17;;;32.90;57.60;;;;;;5036126;28;20442;-86
2022/08/02 08:27:58;;;;;;;3.90;2.77;;;33.70;54.50;;;;;;5025866;28;20450;-86
2022/08/02 08:31:02;;;;;;;;;;;;;;;;;;;;;
2022/08/02 08:34:02;;;;;;;5.60;3.20;;;34.20;52.40;;;;;;5039683;28;20510;-85
2022/08/02 08:36:40;;;;;;;3.30;3.00;;;34.60;51.20;;;;;;5032968;28;20456;-83
2022/08/02 08:40:07;;;;;;;4.20;3.07;;;34.10;51.60;;;;;;5047120;28;20468;-85
2022/08/02 08:47:11;;;;;;;3.93;3.40;;;34.30;50.50;;;;;;4981116;28;20512;-85
2022/08/02 08:50:36;;;;;;;3.17;2.97;;;35.00;49.20;;;;;;4968248;28;20470;-85
2022/08/02 08:53:28;;;;;;;7.20;4.10;;;34.70;49.20;;;;;;5042561;28;20471;-84
2022/08/02 08:56:18;;;;;;;3.37;2.87;;;35.10;49.10;;;;;;5028549;28;20452;-85
2022/08/02 08:59:01;;;;;;;3.83;2.90;;;35.10;48.20;;;;;;5040779;28;20445;-83
2022/08/02 09:01:49;;;;;;;3.73;2.60;;;34.40;48.50;;;;;;5017066;28;20577;-84
2022/08/02 09:04:55;;;;;;;3.30;3.00;;;33.50;50.10;;;;;;4979359;28;20631;-84
2022/08/02 09:08:02;;;;;;;3.50;3.20;;;34.20;49.20;;;;;;5051078;28;20440;-85
2022/08/02 09:13:58;;;;;;;3.10;2.73;;;33.80;49.70;;;;;;1119122;26;20756;-83
2022/08/02 09:16:44;;;;;;;3.70;2.87;;;34.40;48.80;;;;;;5038098;28;20448;-84
2022/08/02 09:19:41;;;;;;;26.60;6.17;;;34.30;48.50;;;;;;5054778;28;20491;-83
2022/08/02 09:22:29;;;;;;;3.20;2.77;;;34.60;48.80;;;;;;5050651;28;21056;-84
2022/08/02 09:25:32;;;;;;;3.70;2.87;;;35.20;46.70;;;;;;5064228;28;20445;-84
2022/08/02 09:28:11;;;;;;;4.03;2.67;;;34.90;46.70;;;;;;5048747;28;20580;-83
2022/08/02 09:30:48;;;;;;;4.43;3.03;;;34.70;47.00;;;;;;5041583;28;20479;-85
2022/08/02 09:44:27;;;;;;;;;;;;;;;;;;;;;
2022/08/02 09:47:44;;;;;;;;;;;;;;;;;;;;;
2022/08/02 09:50:57;;;;;;;2.90;2.10;;;34.50;45.60;;;;;;5069366;28;20467;-87
2022/08/02 09:53:36;;;;;;;1.90;1.77;;;34.60;45.80;;;;;;5025618;28;20437;-85
2022/08/02 09:56:55;;;;;;;2.57;2.00;;;35.10;45.10;;;;;;5013576;28;20454;-84
2022/08/02 10:03:26;;;;;;;1.70;1.60;;;34.60;44.20;;;;;;5123997;23;20492;-84
2022/08/02 10:06:15;;;;;;;1.70;1.60;;;34.30;43.10;;;;;;5014449;28;20814;-85
2022/08/02 10:09:53;;;;;;;3.63;1.67;;;34.20;44.80;;;;;;4991496;28;20991;-85
2022/08/02 10:23:56;;;;;;;1.77;1.67;;;35.00;42.10;;;;;;5028566;28;20484;-86
2022/08/02 10:30:07;;;;;;;1.80;1.70;;;32.80;45.00;;;;;;5022932;28;20492;-85
2022/08/02 10:32:48;;;;;;;2.07;1.60;;;31.50;46.10;;;;;;5034499;23;20495;-85
2022/08/02 10:35:34;;;;;;;1.97;1.87;;;30.80;47.60;;;;;;4985860;28;20439;-85
2022/08/02 10:38:06;;;;;;;1.97;1.87;;;31.30;47.10;;;;;;4998227;28;20490;-85
2022/08/02 10:41:11;;;;;;;;;;;;;;;;;;;;;
2022/08/02 10:47:26;;;;;;;1.93;1.83;;;30.60;49.90;;;;;;4998360;28;20648;-84
2022/08/02 10:50:09;;;;;;;2.67;2.03;;;30.40;50.30;;;;;;4981828;28;20451;-85
2022/08/02 10:53:23;;;;;;;2.40;2.07;;;30.40;49.70;;;;;;5009368;28;20442;-85
2022/08/02 10:56:59;;;;;;;;;;;;;;;;;;;;;
2022/08/02 11:00:04;;;;;;;2.80;2.00;;;31.40;47.90;;;;;;4980594;28;20505;-86
2022/08/02 11:03:27;;;;;;;3.93;1.97;;;32.60;45.40;;;;;;5050487;22;20490;-85
2022/08/02 11:06:30;;;;;;;2.60;1.90;;;33.30;44.40;;;;;;4937583;29;20467;-86
2022/08/02 11:09:36;;;;;;;3.77;2.20;;;33.80;42.40;;;;;;4941394;29;20461;-87
2022/08/02 11:12:52;;;;;;;1.80;1.70;;;33.10;43.40;;;;;;4957915;29;20474;-84
2022/08/02 11:20:42;;;;;;;1.50;1.40;;;33.30;43.70;;;;;;4958224;29;20437;-85
2022/08/02 11:27:30;;;;;;;1.90;1.60;;;34.60;40.40;;;;;;4968626;28;20456;-84
2022/08/02 11:34:05;;;;;;;;;;;;;;;;;;;;;
2022/08/02 11:55:06;;;;;;;1.70;1.60;;;34.10;42.00;;;;;;5081662;23;20508;-87
2022/08/02 12:02:10;;;;;;;2.70;1.90;;;34.70;40.60;;;;;;4994008;28;20813;-85
2022/08/02 12:05:44;;;;;;;2.33;2.10;;;33.70;42.20;;;;;;5023295;28;20482;-84
2022/08/02 12:08:39;;;;;;;2.47;2.27;;;32.80;44.10;;;;;;5009255;28;20552;-86
2022/08/02 12:11:29;;;;;;;3.77;2.20;;;33.20;44.40;;;;;;5009257;28;20473;-86
2022/08/02 12:14:23;;;;;;;2.37;2.17;;;33.10;44.40;;;;;;5036733;28;20457;-86
2022/08/02 12:20:21;;;;;;;2.80;1.57;;;32.80;44.60;;;;;;4997994;28;20519;-85
2022/08/02 12:23:00;;;;;;;1.90;1.70;;;32.80;44.90;;;;;;5007346;28;20540;-86
2022/08/02 12:26:03;;;;;;;1.83;1.73;;;33.30;44.20;;;;;;5031552;28;20449;-85
2022/08/02 12:28:48;;;;;;;4.13;3.80;;;33.80;42.30;;;;;;5018380;28;20453;-84
2022/08/02 12:31:57;;;;;;;2.40;1.90;;;32.80;43.80;;;;;;5012835;28;20439;-82
2022/08/02 12:35:19;;;;;;;;;;;;;;;;;;;;;
2022/08/02 12:38:22;;;;;;;3.60;2.20;;;31.70;46.60;;;;;;4903641;29;20457;-85
2022/08/02 12:44:15;;;;;;;3.30;2.30;;;31.40;47.50;;;;;;4982594;28;20503;-86
2022/08/02 12:46:48;;;;;;;2.03;1.93;;;31.20;48.00;;;;;;4976030;28;20503;-84
2022/08/02 12:49:35;;;;;;;3.93;2.20;;;31.10;48.00;;;;;;4995060;28;20545;-84
2022/08/02 12:52:40;;;;;;;;;;;;;;;;;;;;;
2022/08/02 12:55:37;;;;;;;2.60;2.20;;;30.90;48.60;;;;;;4995182;28;20539;-85
2022/08/02 12:58:53;;;;;;;2.20;1.83;;;31.10;48.50;;;;;;4968975;28;20453;-85
2022/08/02 13:02:13;;;;;;;2.47;2.27;;;32.00;46.80;;;;;;4971881;28;20552;-85
2022/08/02 13:05:06;;;;;;;1.80;1.70;;;32.30;45.70;;;;;;4978613;28;20493;-84
2022/08/02 13:07:43;;;;;;;3.37;1.93;;;31.90;46.20;;;;;;5015087;28;20477;-84
2022/08/02 13:10:44;;;;;;;2.70;2.20;;;31.90;46.20;;;;;;5021957;28;20449;-85
2022/08/02 13:13:22;;;;;;;4.10;2.20;;;31.90;46.00;;;;;;5032458;28;20451;-85
2022/08/02 13:16:14;;;;;;;2.57;2.10;;;32.10;46.00;;;;;;5035702;28;20532;-84
2022/08/02 13:19:31;;;;;;;2.47;1.97;;;32.40;45.30;;;;;;5001916;28;20445;-86
2022/08/02 13:22:03;;;;;;;2.20;1.80;;;32.30;45.70;;;;;;5001216;28;20478;-85
2022/08/02 13:24:52;;;;;;;2.57;2.37;;;32.90;44.70;;;;;;5006051;28;20484;-85
2022/08/02 13:27:55;;;;;;;;;;;;;;;;;;;;;
2022/08/02 13:30:45;;;;;;;3.10;2.90;;;32.60;44.60;;;;;;5030180;28;20453;-86
2022/08/02 13:33:50;;;;;;;5.70;2.20;;;32.30;45.10;;;;;;5021824;28;20517;-86
2022/08/02 13:36:39;;;;;;;2.00;1.90;;;32.30;45.20;;;;;;5029271;28;20462;-85
2022/08/02 13:39:29;;;;;;;5.80;2.00;;;32.60;45.20;;;;;;5027573;28;20434;-84
2022/08/02 13:42:20;;;;;;;2.23;2.13;;;32.60;44.80;;;;;;5031179;28;20462;-85
2022/08/02 13:45:04;;;;;;;1.93;1.70;;;32.60;44.20;;;;;;4949806;28;20557;-87
2022/08/02 13:48:06;;;;;;;2.37;2.10;;;33.10;44.10;;;;;;4982914;28;20457;-85
2022/08/02 13:50:49;;;;;;;2.50;2.07;;;33.60;43.10;;;;;;4918533;29;20453;-84
2022/08/02 13:53:27;;;;;;;1.67;1.57;;;33.20;43.30;;;;;;4917948;29;20494;-83
2022/08/02 13:56:17;;;;;;;2.10;2.00;;;32.60;43.70;;;;;;4927198;29;21032;-85
2022/08/02 13:58:52;;;;;;;2.47;2.20;;;32.30;44.00;;;;;;4929587;29;20477;-83
2022/08/02 14:01:21;;;;;;;6.30;3.87;;;32.20;44.00;;;;;;4925578;29;20482;-84
2022/08/02 14:03:53;;;;;;;3.43;2.80;;;32.00;44.40;;;;;;4918410;29;20470;-84
2022/08/02 14:06:32;;;;;;;1.93;1.73;;;32.00;44.40;;;;;;4929445;29;20465;-85
2022/08/02 14:09:03;;;;;;;2.40;2.20;;;32.10;44.50;;;;;;4927261;29;20469;-85
2022/08/02 14:11:33;;;;;;;2.97;2.70;;;32.60;43.70;;;;;;4913777;29;20493;-84
2022/08/02 14:14:01;;;;;;;1.93;1.83;;;32.30;44.00;;;;;;4928844;29;20459;-87
2022/08/02 14:16:28;;;;;;;2.00;1.90;;;32.20;43.90;;;;;;4973423;28;20507;-86
2022/08/02 14:19:04;;;;;;;1.83;1.73;;;32.60;43.80;;;;;;4958165;28;20507;-86
2022/08/02 14:21:34;;;;;;;1.80;1.70;;;32.60;44.00;;;;;;4997198;28;20536;-86
2022/08/02 14:24:14;;;;;;;1.93;1.83;;;32.50;44.30;;;;;;5036656;28;20528;-84
2022/08/02 14:26:43;;;;;;;3.67;2.17;;;33.20;43.40;;;;;;5009115;28;20435;-85
2022/08/02 14:29:12;;;;;;;2.53;2.20;;;33.20;43.10;;;;;;5020177;28;20450;-85
2022/08/02 14:31:45;;;;;;;2.00;1.90;;;32.70;43.90;;;;;;5029240;28;20522;-84
2022/08/02 14:34:20;;;;;;;1.80;1.70;;;32.30;44.20;;;;;;5036217;28;20557;-83
2022/08/02 14:36:47;;;;;;;2.43;2.20;;;32.50;44.10;;;;;;5029279;28;20438;-85
2022/08/02 14:39:52;;;;;;;2.13;1.90;;;32.30;44.60;;;;;;5022488;28;20449;-83
2022/08/02 14:48:18;;;;;;;3.73;2.23;;;31.90;45.50;;;;;;5042340;23;20511;-85
2022/08/02 14:50:46;;;;;;;2.20;2.10;;;31.80;45.60;;;;;;5017423;28;20507;-84
2022/08/02 14:53:13;;;;;;;3.53;1.93;;;32.20;45.20;;;;;;5007569;28;20447;-85
2022/08/02 14:55:51;;;;;;;3.63;2.00;;;31.90;45.50;;;;;;5000338;28;20455;-83
2022/08/02 14:58:42;;;;;;;2.53;2.33;;;32.40;44.70;;;;;;4992780;28;20498;-86
2022/08/02 15:03:57;;;;;;;2.73;2.10;;;31.90;45.70;;;;;;4987454;28;20483;-84
2022/08/02 15:06:49;;;;;;;3.60;2.30;;;32.20;44.90;;;;;;4994782;28;20458;-83
2022/08/02 15:09:17;;;;;;;2.30;2.00;;;32.20;44.90;;;;;;5007422;28;21056;-84
2022/08/02 15:11:43;;;;;;;2.27;2.07;;;32.00;45.20;;;;;;4992036;28;20476;-84
2022/08/02 15:14:19;;;;;;;2.30;2.03;;;32.10;45.00;;;;;;4983719;28;20456;-85
2022/08/02 15:17:41;;;;;;;1.90;1.80;;;31.80;45.40;;;;;;4982640;28;20463;-86
2022/08/02 15:20:59;;;;;;;2.33;1.90;;;31.90;45.20;;;;;;4990327;28;20494;-85
2022/08/02 15:24:16;;;;;;;2.33;1.90;;;31.80;45.40;;;;;;4984659;28;20470;-85
2022/08/02 15:27:03;;;;;;;2.30;2.10;;;31.90;45.70;;;;;;4941278;28;21026;-85
2022/08/02 15:36:04;;;;;;;5.03;2.23;;;31.90;45.40;;;;;;5761189;23;20489;-83
2022/08/02 15:38:56;;;;;;;2.47;2.27;;;31.80;45.50;;;;;;5028279;28;20436;-84
2022/08/02 15:41:23;;;;;;;2.10;1.90;;;32.30;45.00;;;;;;5040805;28;20507;-84
2022/08/02 15:43:52;;;;;;;2.70;1.97;;;32.20;44.80;;;;;;5049924;28;20451;-85
2022/08/02 15:46:25;;;;;;;2.00;1.90;;;32.30;44.60;;;;;;5030320;28;20453;-84
2022/08/02 15:48:56;;;;;;;2.30;2.10;;;32.20;44.70;;;;;;5041222;28;20558;-85
2022/08/02 15:51:49;;;;;;;2.87;2.57;;;31.90;45.40;;;;;;5047146;28;20995;-84
2022/08/02 15:54:16;;;;;;;2.57;2.37;;;31.70;45.80;;;;;;5035009;28;20474;-85
2022/08/02 15:56:43;;;;;;;2.50;2.27;;;31.50;46.00;;;;;;5041964;28;20513;-86
2022/08/02 15:59:10;;;;;;;2.47;2.33;;;31.30;46.40;;;;;;5041818;28;20524;-85
2022/08/02 16:01:37;;;;;;;6.13;2.63;;;31.40;46.70;;;;;;5040683;28;20481;-84
2022/08/02 16:04:06;;;;;;;2.50;2.30;;;31.40;46.70;;;;;;5050901;28;20473;-86
2022/08/02 16:06:34;;;;;;;2.57;2.40;;;31.50;46.40;;;;;;5064623;28;20507;-84
2022/08/02 16:09:02;;;;;;;2.53;2.33;;;31.60;46.10;;;;;;5071222;28;20444;-84
2022/08/02 16:11:35;;;;;;;2.37;2.17;;;32.20;45.40;;;;;;5122244;23;20482;-85
2022/08/02 16:17:54;;;;;;;2.10;1.80;;;31.60;46.30;;;;;;4965671;28;20446;-86
2022/08/02 16:24:40;;;;;;;3.47;2.60;;;31.50;46.60;;;;;;5000978;28;20456;-86
2022/08/02 16:27:33;;;;;;;2.60;2.40;;;32.00;45.90;;;;;;5001031;28;20446;-85
2022/08/02 16:30:14;;;;;;;2.80;2.60;;;31.70;46.30;;;;;;5012606;28;20541;-83